Terminal Aerodrome Forecast
Issued by NWS Kansas City/Pleasant Hill, MO

Home | Current Version | Previous Version | Graphics & Text | Print | Product List | Glossary On
Versions: 1 2 3 4 5 6 7 8 9 10 11 12 13 14 15 16
753
FTUS43 KEAX 130520
TAFMCI
TAF
KMCI 130520Z 1306/1406 04009KT P6SM BKN110
     FM131400 10010KT P6SM OVC060
     FM132100 11013KT P6SM OVC060=

USA.gov is the U.S. government's official web portal to all federal, state and local government web resources and services.